createdAt,value
2022-11-06T00:01:44.929Z,98253.47
2022-11-06T00:04:11.830Z,98253.28
2022-11-06T00:06:50.720Z,98250.69
2022-11-06T00:09:19.223Z,98244.88
2022-11-06T00:11:45.839Z,98239.34
2022-11-06T00:14:12.167Z,98240.00
2022-11-06T00:16:38.965Z,98241.94
2022-11-06T00:19:05.505Z,98245.69
2022-11-06T00:21:31.904Z,98236.75
2022-11-06T00:23:58.780Z,98237.09
2022-11-06T00:26:25.828Z,98245.69
2022-11-06T00:28:52.493Z,98251.69
2022-11-06T00:31:19.877Z,98243.91
2022-11-06T00:33:46.198Z,98246.00
2022-11-06T00:36:15.402Z,98258.81
2022-11-06T00:38:41.727Z,98250.53
2022-11-06T00:41:08.781Z,98249.59
2022-11-06T00:43:38.712Z,98256.41
2022-11-06T00:46:06.914Z,98257.84
2022-11-06T00:48:33.679Z,98260.94
2022-11-06T00:51:03.646Z,98260.94
2022-11-06T00:53:31.015Z,98253.94
2022-11-06T00:56:09.815Z,98260.91
2022-11-06T00:58:36.536Z,98264.13
2022-11-06T01:01:09.638Z,98273.88
2022-11-06T01:03:36.460Z,98261.38
2022-11-06T01:06:06.611Z,98260.09
2022-11-06T01:08:33.121Z,98265.13
2022-11-06T01:10:59.428Z,98263.00
2022-11-06T01:13:25.767Z,98273.22
2022-11-06T01:15:53.130Z,98258.16
2022-11-06T01:18:19.472Z,98255.88
2022-11-06T01:20:48.686Z,98251.84
2022-11-06T01:23:15.006Z,98248.28
2022-11-06T01:25:41.319Z,98246.16
2022-11-06T01:28:07.637Z,98246.81
2022-11-06T01:30:37.523Z,98246.97
2022-11-06T01:33:03.850Z,98236.81
2022-11-06T01:35:30.160Z,98235.78
2022-11-06T01:37:56.756Z,98243.13
2022-11-06T01:40:23.076Z,98237.09
2022-11-06T01:42:49.726Z,98238.44
2022-11-06T01:45:21.084Z,98240.50
2022-11-06T01:47:47.449Z,98247.31
2022-11-06T01:50:17.143Z,98249.56
2022-11-06T01:52:44.515Z,98251.97
2022-11-06T01:55:22.014Z,98254.41
2022-11-06T01:57:48.639Z,98246.97
2022-11-06T02:00:16.109Z,98242.91
2022-11-06T02:02:42.530Z,98242.44
2022-11-06T02:05:09.583Z,98247.44
2022-11-06T02:07:35.893Z,98250.03
2022-11-06T02:10:04.619Z,98245.03
2022-11-06T02:12:49.722Z,98248.59
2022-11-06T02:15:15.993Z,98243.72
2022-11-06T02:17:51.232Z,98240.00
2022-11-06T02:20:27.797Z,98237.41
2022-11-06T02:23:01.502Z,98221.38
2022-11-06T02:25:33.065Z,98225.25
2022-11-06T02:28:03.240Z,98219.25
2022-11-06T02:30:33.127Z,98219.13
2022-11-06T02:32:59.783Z,98211.50
2022-11-06T02:35:26.615Z,98211.47
2022-11-06T02:37:55.429Z,98206.94
2022-11-06T02:40:22.072Z,98208.75
2022-11-06T02:42:49.077Z,98208.22
2022-11-06T02:45:16.933Z,98199.50
2022-11-06T02:47:43.286Z,98207.28
2022-11-06T02:50:11.368Z,98198.72
2022-11-06T02:52:42.041Z,98198.34
2022-11-06T02:55:09.534Z,98188.94
2022-11-06T02:57:36.361Z,98186.22
2022-11-06T03:00:05.260Z,98181.84
2022-11-06T03:02:34.087Z,98185.06
2022-11-06T03:05:02.621Z,98176.00
2022-11-06T03:07:31.441Z,98181.84
2022-11-06T03:09:57.780Z,98167.56
2022-11-06T03:12:26.183Z,98174.56
2022-11-06T03:15:11.475Z,98166.63
2022-11-06T03:17:42.558Z,98165.00
2022-11-06T03:20:21.124Z,98167.28
2022-11-06T03:22:53.544Z,98176.47
2022-11-06T03:25:19.846Z,98184.59
2022-11-06T03:28:04.841Z,98184.75
2022-11-06T03:30:32.053Z,98175.22
2022-11-06T03:33:03.406Z,98176.69
2022-11-06T03:35:29.689Z,98162.91
2022-11-06T03:37:58.864Z,98169.72
2022-11-06T03:40:27.717Z,98173.13
2022-11-06T03:42:55.157Z,98172.91
2022-11-06T03:45:21.906Z,98171.31
2022-11-06T03:47:49.218Z,98169.69
2022-11-06T03:50:17.296Z,98163.53
2022-11-06T03:52:44.730Z,98165.78
2022-11-06T03:55:15.448Z,98162.91
2022-11-06T03:57:57.459Z,98162.91
2022-11-06T04:00:23.777Z,98149.63
2022-11-06T04:02:53.610Z,98153.63
2022-11-06T04:05:21.520Z,98159.47
2022-11-06T04:08:07.326Z,98158.66
2022-11-06T04:10:52.333Z,98155.41
2022-11-06T04:13:37.459Z,98162.56
2022-11-06T04:16:04.241Z,98154.97
2022-11-06T04:18:30.655Z,98154.16
2022-11-06T04:21:23.015Z,98160.47
2022-11-06T04:24:27.131Z,98170.69
2022-11-06T04:27:08.942Z,98162.41
2022-11-06T04:29:44.213Z,98169.06
2022-11-06T04:32:10.525Z,98177.47
2022-11-06T04:34:41.872Z,98167.41
2022-11-06T04:37:08.177Z,98170.00
2022-11-06T04:39:37.011Z,98176.00
2022-11-06T04:42:09.862Z,98166.59
2022-11-06T04:44:40.104Z,98162.09
2022-11-06T04:47:08.929Z,98148.97
2022-11-06T04:49:35.494Z,98162.09
2022-11-06T04:52:02.321Z,98158.34
2022-11-06T04:54:30.325Z,98159.97
2022-11-06T04:57:02.716Z,98161.91
2022-11-06T04:59:29.067Z,98166.13
2022-11-06T05:01:55.477Z,98169.38
2022-11-06T05:04:22.313Z,98163.38
2022-11-06T05:06:48.629Z,98157.38
2022-11-06T05:09:14.957Z,98158.84
2022-11-06T05:11:42.352Z,98153.66
2022-11-06T05:14:08.757Z,98154.47
2022-11-06T05:16:35.080Z,98149.47
2022-11-06T05:19:01.742Z,98152.69
2022-11-06T05:21:46.819Z,98141.03
2022-11-06T05:24:13.161Z,98141.50
2022-11-06T05:26:41.062Z,98142.63
2022-11-06T05:29:07.513Z,98142.81
2022-11-06T05:31:34.233Z,98140.88
2022-11-06T05:34:00.569Z,98146.84
2022-11-06T05:36:27.255Z,98141.34
2022-11-06T05:38:54.059Z,98120.78
2022-11-06T05:41:20.400Z,98125.47
2022-11-06T05:43:46.743Z,98140.22
2022-11-06T05:46:46.530Z,98135.38
2022-11-06T05:49:02.154Z,98122.75
2022-11-06T05:51:28.561Z,98123.19
2022-11-06T05:53:55.233Z,98121.25
2022-11-06T05:56:23.362Z,98125.78
2022-11-06T05:58:52.777Z,98121.59
2022-11-06T06:01:19.210Z,98117.22
2022-11-06T06:03:45.746Z,98129.50
2022-11-06T06:06:12.321Z,98119.47
2022-11-06T06:08:39.943Z,98108.63
2022-11-06T06:11:07.290Z,98115.25
2022-11-06T06:13:35.150Z,98113.66
2022-11-06T06:16:01.685Z,98116.25
2022-11-06T06:18:28.030Z,98098.91
2022-11-06T06:20:54.354Z,98114.94
2022-11-06T06:23:20.984Z,98117.84
2022-11-06T06:25:47.302Z,98111.38
2022-11-06T06:28:14.386Z,98109.59
2022-11-06T06:30:40.924Z,98109.75
2022-11-06T06:33:07.385Z,98106.19
2022-11-06T06:35:33.716Z,98113.66
2022-11-06T06:38:00.079Z,98112.66
2022-11-06T06:40:27.926Z,98110.41
2022-11-06T06:42:57.636Z,98109.75
2022-11-06T06:45:24.375Z,98117.84
2022-11-06T06:47:53.021Z,98118.81
2022-11-06T06:50:20.919Z,98110.25
2022-11-06T06:52:47.676Z,98110.56
2022-11-06T06:55:14.209Z,98114.63
2022-11-06T06:57:40.683Z,98117.38
2022-11-06T07:00:07.338Z,98121.91
2022-11-06T07:02:33.746Z,98124.97
2022-11-06T07:05:00.561Z,98122.22
2022-11-06T07:07:27.382Z,98118.50
2022-11-06T07:09:53.706Z,98114.63
2022-11-06T07:12:20.780Z,98124.97
2022-11-06T07:14:47.499Z,98120.13
2022-11-06T07:17:14.193Z,98116.72
2022-11-06T07:19:40.544Z,98108.94
2022-11-06T07:22:06.873Z,98105.69
2022-11-06T07:24:35.968Z,98107.44
2022-11-06T07:27:02.282Z,98109.88
2022-11-06T07:29:29.557Z,98113.63
2022-11-06T07:31:55.866Z,98109.41
2022-11-06T07:34:22.197Z,98114.44
2022-11-06T07:36:48.551Z,98107.63
2022-11-06T07:39:14.905Z,98106.78
2022-11-06T07:41:41.316Z,98106.34
2022-11-06T07:44:08.017Z,98103.06
2022-11-06T07:46:34.389Z,98094.13
2022-11-06T07:49:00.723Z,98100.56
2022-11-06T07:51:27.037Z,98092.22
2022-11-06T07:53:53.405Z,98093.50
2022-11-06T07:56:24.427Z,98082.41
2022-11-06T07:58:51.857Z,98077.38
2022-11-06T08:01:28.022Z,98077.00
2022-11-06T08:03:56.900Z,98075.78
2022-11-06T08:06:23.262Z,98067.72
2022-11-06T08:08:54.841Z,98063.34
2022-11-06T08:11:24.193Z,98061.81
2022-11-06T08:13:50.522Z,98069.22
2022-11-06T08:16:18.271Z,98067.94
2022-11-06T08:18:44.742Z,98073.06
2022-11-06T08:21:11.068Z,98064.63
2022-11-06T08:23:42.919Z,98067.59
2022-11-06T08:26:10.829Z,98055.22
2022-11-06T08:28:38.835Z,98067.25
2022-11-06T08:31:08.326Z,98064.91
2022-11-06T08:33:35.350Z,98066.59
2022-11-06T08:36:02.675Z,98061.34
2022-11-06T08:38:30.453Z,98056.16
2022-11-06T08:40:57.251Z,98052.16
2022-11-06T08:43:26.392Z,98058.94
2022-11-06T08:45:52.710Z,98066.91
2022-11-06T08:48:19.359Z,98065.66
2022-11-06T08:50:45.701Z,98060.59
2022-11-06T08:53:12.802Z,98070.28
2022-11-06T08:55:39.675Z,98072.72
2022-11-06T08:58:06.105Z,98074.66
2022-11-06T09:00:32.434Z,98067.41
2022-11-06T09:02:59.760Z,98062.34
2022-11-06T09:05:26.255Z,98070.09
2022-11-06T09:07:53.238Z,98062.41
2022-11-06T09:10:20.755Z,98043.28
2022-11-06T09:12:47.116Z,98052.72
2022-11-06T09:15:13.808Z,98033.75
2022-11-06T09:17:43.940Z,98037.66
2022-11-06T09:20:12.010Z,98036.38
2022-11-06T09:22:38.333Z,98023.97
2022-11-06T09:25:04.918Z,98022.94
2022-11-06T09:27:31.420Z,98013.84
2022-11-06T09:30:00.068Z,98023.72
2022-11-06T09:32:26.388Z,98017.50
2022-11-06T09:34:52.763Z,98022.13
2022-11-06T09:37:19.210Z,98013.16
2022-11-06T09:39:47.841Z,98035.53
2022-11-06T09:42:17.131Z,98014.78
2022-11-06T09:44:58.915Z,98021.22
2022-11-06T09:47:25.796Z,98009.47
2022-11-06T09:49:55.528Z,98012.22
2022-11-06T09:52:34.016Z,98014.53
2022-11-06T09:55:25.203Z,98021.66
2022-11-06T09:57:55.831Z,98017.28
2022-11-06T10:00:22.253Z,98023.53
2022-11-06T10:02:55.861Z,98015.69
2022-11-06T10:05:24.132Z,98023.72
2022-11-06T10:07:51.439Z,98017.75
2022-11-06T10:10:19.023Z,98017.25
2022-11-06T10:12:54.449Z,98007.81
2022-11-06T10:15:25.197Z,98002.97
2022-11-06T10:17:59.797Z,98008.84
2022-11-06T10:20:40.106Z,98010.31
2022-11-06T10:23:19.448Z,98008.06
2022-11-06T10:25:47.884Z,98009.88
2022-11-06T10:28:32.839Z,98006.56
2022-11-06T10:30:59.134Z,98003.09
2022-11-06T10:33:41.596Z,97991.81
2022-11-06T10:36:13.667Z,97995.28
2022-11-06T10:38:40.820Z,97991.66
2022-11-06T10:41:12.572Z,97977.03
2022-11-06T10:43:45.790Z,97974.34
2022-11-06T10:46:12.077Z,97962.72
2022-11-06T10:48:41.555Z,97957.53
2022-11-06T10:51:27.670Z,97966.31
2022-11-06T10:54:01.329Z,97962.03
2022-11-06T10:56:30.741Z,97947.97
2022-11-06T10:58:58.137Z,97939.91
2022-11-06T11:01:24.763Z,97927.88
2022-11-06T11:03:51.607Z,97929.38
2022-11-06T11:06:18.393Z,97923.53
2022-11-06T11:08:48.152Z,97916.84
2022-11-06T11:11:14.451Z,97921.03
2022-11-06T11:13:41.214Z,97916.13
2022-11-06T11:16:30.909Z,97898.41
2022-11-06T11:18:58.482Z,97909.53
2022-11-06T11:21:25.551Z,97899.19
2022-11-06T11:24:01.675Z,97897.13
2022-11-06T11:26:28.815Z,97885.47
2022-11-06T11:28:55.763Z,97875.28
2022-11-06T11:31:27.683Z,97890.19
2022-11-06T11:33:56.032Z,97885.28
2022-11-06T11:36:22.398Z,97879.59
2022-11-06T11:38:48.737Z,97880.84
2022-11-06T11:41:24.401Z,97876.53
2022-11-06T11:44:03.471Z,97867.41
2022-11-06T11:46:30.774Z,97867.69
2022-11-06T11:48:57.818Z,97845.00
2022-11-06T11:51:27.204Z,97852.94
2022-11-06T11:53:55.445Z,97858.06
2022-11-06T11:56:36.431Z,97866.50
2022-11-06T11:59:11.867Z,97842.38
2022-11-06T12:01:41.223Z,97840.88
2022-11-06T12:04:29.077Z,97856.34
2022-11-06T12:06:57.870Z,97852.94
2022-11-06T12:09:24.897Z,97847.00
2022-11-06T12:11:52.177Z,97843.25
2022-11-06T12:14:19.490Z,97837.53
2022-11-06T12:16:46.267Z,97835.03
2022-11-06T12:19:12.609Z,97833.50
2022-11-06T12:21:39.322Z,97820.94
2022-11-06T12:24:06.993Z,97819.16
2022-11-06T12:26:41.762Z,97817.69
2022-11-06T12:29:11.625Z,97806.22
2022-11-06T12:31:43.499Z,97784.94
2022-11-06T12:34:28.690Z,97778.22
2022-11-06T12:37:17.401Z,97788.22
2022-11-06T12:39:46.370Z,97775.97
2022-11-06T12:42:12.751Z,97783.25
2022-11-06T12:44:41.537Z,97771.41
2022-11-06T12:47:11.989Z,97784.09
2022-11-06T12:49:57.209Z,97775.88
2022-11-06T12:52:29.335Z,97766.09
2022-11-06T12:55:07.557Z,97762.97
2022-11-06T12:57:40.369Z,97770.13
2022-11-06T13:00:14.276Z,97754.19
2022-11-06T13:03:00.099Z,97747.53
2022-11-06T13:05:31.399Z,97735.03
2022-11-06T13:08:17.025Z,97740.88
2022-11-06T13:10:48.689Z,97732.84
2022-11-06T13:13:30.446Z,97731.25
2022-11-06T13:16:15.479Z,97715.78
2022-11-06T13:18:53.760Z,97718.03
2022-11-06T13:21:20.085Z,97716.59
2022-11-06T13:23:50.484Z,97701.56
2022-11-06T13:26:35.610Z,97704.19
2022-11-06T13:29:05.857Z,97704.84
2022-11-06T13:31:36.838Z,97702.72
2022-11-06T13:34:05.193Z,97686.81
2022-11-06T13:36:31.911Z,97705.50
2022-11-06T13:39:00.904Z,97708.56
2022-11-06T13:41:27.836Z,97695.94
2022-11-06T13:43:54.255Z,97684.34
2022-11-06T13:46:21.874Z,97685.94
2022-11-06T13:48:50.751Z,97684.97
2022-11-06T13:51:24.434Z,97660.69
2022-11-06T13:54:00.229Z,97665.38
2022-11-06T13:56:36.058Z,97676.81
2022-11-06T13:59:14.850Z,97669.59
2022-11-06T14:01:55.052Z,97671.91
2022-11-06T14:04:25.727Z,97657.34
2022-11-06T14:06:55.812Z,97647.56
2022-11-06T14:09:25.747Z,97658.28
2022-11-06T14:11:55.530Z,97660.69
2022-11-06T14:14:21.821Z,97660.69
2022-11-06T14:17:03.614Z,97654.28
2022-11-06T14:19:30.452Z,97653.53
2022-11-06T14:22:09.002Z,97642.44
2022-11-06T14:24:35.953Z,97642.81
2022-11-06T14:27:03.189Z,97648.66
2022-11-06T14:29:30.255Z,97629.59
2022-11-06T14:32:02.965Z,97632.44
2022-11-06T14:34:29.986Z,97631.50
2022-11-06T14:36:56.314Z,97628.31
2022-11-06T14:39:41.450Z,97634.66
2022-11-06T14:42:07.761Z,97631.94
2022-11-06T14:44:35.321Z,97623.31
2022-11-06T14:47:02.857Z,97620.91
2022-11-06T14:49:31.015Z,97630.47
2022-11-06T14:51:58.181Z,97622.44
2022-11-06T14:54:24.791Z,97623.97
2022-11-06T14:56:54.341Z,97632.25
2022-11-06T14:59:22.129Z,97614.78
2022-11-06T15:01:55.319Z,97621.16
2022-11-06T15:04:21.751Z,97630.19
2022-11-06T15:06:48.318Z,97626.09
2022-11-06T15:09:23.922Z,97645.38
2022-11-06T15:11:51.227Z,97643.72
2022-11-06T15:14:17.517Z,97638.09
2022-11-06T15:16:47.280Z,97635.16
2022-11-06T15:19:34.027Z,97630.28
2022-11-06T15:22:03.084Z,97630.56
2022-11-06T15:24:31.336Z,97620.22
2022-11-06T15:26:58.299Z,97624.81
2022-11-06T15:29:31.646Z,97625.19
2022-11-06T15:32:05.206Z,97634.72
2022-11-06T15:34:36.319Z,97619.22
2022-11-06T15:37:22.915Z,97624.66
2022-11-06T15:39:57.545Z,97618.59
2022-11-06T15:42:26.067Z,97606.28
2022-11-06T15:44:52.458Z,97604.97
2022-11-06T15:47:22.726Z,97610.97
2022-11-06T15:49:49.270Z,97602.50
2022-11-06T15:52:16.967Z,97607.50
2022-11-06T15:54:43.939Z,97596.94
2022-11-06T15:57:18.045Z,97593.75
2022-11-06T15:59:44.516Z,97577.47
2022-11-06T16:02:15.319Z,97589.00
2022-11-06T16:04:41.809Z,97603.44
2022-11-06T16:07:09.207Z,97589.19
2022-11-06T16:09:35.551Z,97591.09
2022-11-06T16:12:01.877Z,97595.41
2022-11-06T16:14:28.206Z,97588.19
2022-11-06T16:16:55.333Z,97588.75
2022-11-06T16:19:23.565Z,97568.94
2022-11-06T16:22:09.202Z,97574.59
2022-11-06T16:24:43.784Z,97575.03
2022-11-06T16:27:10.145Z,97562.38
2022-11-06T16:29:36.570Z,97552.25
2022-11-06T16:32:06.838Z,97523.97
2022-11-06T16:34:33.134Z,97537.22
2022-11-06T16:37:02.546Z,97530.88
2022-11-06T16:39:49.638Z,97535.53
2022-11-06T16:42:22.434Z,97515.16
2022-11-06T16:44:49.307Z,97507.31
2022-11-06T16:47:16.731Z,97529.38
2022-11-06T16:49:53.138Z,97520.38
2022-11-06T16:52:33.459Z,97528.69
2022-11-06T16:55:01.229Z,97522.88
2022-11-06T16:57:37.188Z,97511.53
2022-11-06T17:00:06.757Z,97496.50
2022-11-06T17:02:34.134Z,97514.28
2022-11-06T17:05:13.762Z,97498.13
2022-11-06T17:07:41.426Z,97508.59
2022-11-06T17:10:26.834Z,97509.75
2022-11-06T17:12:53.154Z,97514.50
2022-11-06T17:15:19.536Z,97499.03
2022-11-06T17:17:45.983Z,97488.41
2022-11-06T17:20:13.460Z,97502.63
2022-11-06T17:22:39.798Z,97507.72
2022-11-06T17:25:06.446Z,97506.56
2022-11-06T17:27:32.774Z,97508.97
2022-11-06T17:29:59.111Z,97519.38
2022-11-06T17:32:25.472Z,97518.94
2022-11-06T17:34:51.802Z,97529.16
2022-11-06T17:37:21.894Z,97517.34
2022-11-06T17:39:48.552Z,97523.75
2022-11-06T17:42:14.884Z,97527.47
2022-11-06T17:44:41.218Z,97520.69
2022-11-06T17:47:07.538Z,97513.13
2022-11-06T17:49:33.913Z,97519.66
2022-11-06T17:52:00.689Z,97528.97
2022-11-06T17:54:28.152Z,97515.59
2022-11-06T17:56:54.982Z,97520.75
2022-11-06T17:59:21.594Z,97515.22
2022-11-06T18:01:50.342Z,97514.16
2022-11-06T18:04:17.260Z,97500.34
2022-11-06T18:06:44.405Z,97488.09
2022-11-06T18:09:10.735Z,97508.09
2022-11-06T18:11:37.078Z,97487.28
2022-11-06T18:14:03.405Z,97486.72
2022-11-06T18:16:30.449Z,97484.22
2022-11-06T18:18:57.059Z,97481.09
2022-11-06T18:21:23.594Z,97481.81
2022-11-06T18:23:50.045Z,97486.53
2022-11-06T18:26:16.581Z,97490.03
2022-11-06T18:28:42.931Z,97489.94
2022-11-06T18:31:09.312Z,97491.03
2022-11-06T18:33:35.621Z,97490.75
2022-11-06T18:36:05.970Z,97484.50
2022-11-06T18:38:32.382Z,97487.25
2022-11-06T18:40:58.707Z,97493.50
2022-11-06T18:43:25.092Z,97496.63
2022-11-06T18:45:51.447Z,97499.97
2022-11-06T18:48:21.337Z,97494.16
2022-11-06T18:50:48.316Z,97486.94
2022-11-06T18:53:15.254Z,97475.78
2022-11-06T18:55:45.497Z,97480.69
2022-11-06T18:58:12.376Z,97463.59
2022-11-06T19:00:38.873Z,97468.84
2022-11-06T19:03:05.939Z,97469.13
2022-11-06T19:05:34.189Z,97467.44
2022-11-06T19:08:00.938Z,97481.31
2022-11-06T19:10:29.384Z,97474.13
2022-11-06T19:12:59.165Z,97470.53
2022-11-06T19:15:25.996Z,97464.56
2022-11-06T19:17:52.685Z,97468.13
2022-11-06T19:20:19.731Z,97463.22
2022-11-06T19:22:48.509Z,97456.78
2022-11-06T19:25:14.845Z,97460.97
2022-11-06T19:27:41.411Z,97460.59
2022-11-06T19:30:08.181Z,97443.59
2022-11-06T19:32:34.492Z,97435.31
2022-11-06T19:35:00.841Z,97409.81
2022-11-06T19:37:27.321Z,97415.00
2022-11-06T19:39:53.649Z,97421.78
2022-11-06T19:42:19.963Z,97421.56
2022-11-06T19:44:46.359Z,97412.22
2022-11-06T19:47:12.729Z,97405.56
2022-11-06T19:49:39.050Z,97413.63
2022-11-06T19:52:42.292Z,97393.50
2022-11-06T19:54:51.853Z,97404.84
2022-11-06T19:57:38.013Z,97407.88
2022-11-06T20:00:10.151Z,97405.31
2022-11-06T20:02:37.608Z,97415.09
2022-11-06T20:05:04.336Z,97415.09
2022-11-06T20:07:30.883Z,97407.25
2022-11-06T20:10:02.103Z,97408.66
2022-11-06T20:12:28.817Z,97412.78
2022-11-06T20:14:55.272Z,97418.75
2022-11-06T20:17:21.609Z,97416.06
2022-11-06T20:19:48.002Z,97416.81
2022-11-06T20:22:14.355Z,97411.00
2022-11-06T20:24:41.464Z,97425.16
2022-11-06T20:27:11.383Z,97413.94
2022-11-06T20:29:38.066Z,97418.13
2022-11-06T20:32:04.545Z,97419.03
2022-11-06T20:34:30.898Z,97413.94
2022-11-06T20:36:57.225Z,97399.78
2022-11-06T20:39:23.582Z,97413.50
2022-11-06T20:41:50.851Z,97434.44
2022-11-06T20:44:17.201Z,97412.44
2022-11-06T20:46:46.316Z,97417.97
2022-11-06T20:49:14.107Z,97418.31
2022-11-06T20:52:11.548Z,97438.34
2022-11-06T20:54:26.846Z,97424.53
2022-11-06T20:56:53.278Z,97428.09
2022-11-06T20:59:19.615Z,97436.13
2022-11-06T21:01:46.144Z,97434.88
2022-11-06T21:04:12.628Z,97439.72
2022-11-06T21:06:39.255Z,97440.50
2022-11-06T21:09:06.104Z,97440.41
2022-11-06T21:11:32.422Z,97450.41
2022-11-06T21:13:58.750Z,97447.28
2022-11-06T21:16:25.900Z,97438.91
2022-11-06T21:18:52.365Z,97440.50
2022-11-06T21:21:21.015Z,97435.84
2022-11-06T21:23:47.893Z,97440.22
2022-11-06T21:26:21.664Z,97446.47
2022-11-06T21:28:48.006Z,97447.09
2022-11-06T21:31:18.259Z,97449.59
2022-11-06T21:33:45.729Z,97456.28
2022-11-06T21:36:13.479Z,97440.06
2022-11-06T21:38:39.876Z,97434.88
2022-11-06T21:41:13.303Z,97447.53
2022-11-06T21:43:39.673Z,97449.16
2022-11-06T21:46:06.759Z,97452.72
2022-11-06T21:48:45.802Z,97442.56
2022-11-06T21:51:13.920Z,97438.47
2022-11-06T21:53:59.077Z,97436.50
2022-11-06T21:56:26.305Z,97424.19
2022-11-06T21:58:53.222Z,97429.47
2022-11-06T22:01:19.629Z,97424.66
2022-11-06T22:03:46.011Z,97440.78
2022-11-06T22:06:16.243Z,97440.78
2022-11-06T22:08:43.221Z,97440.16
2022-11-06T22:11:15.733Z,97438.00
2022-11-06T22:13:42.156Z,97445.13
2022-11-06T22:16:08.681Z,97442.38
2022-11-06T22:18:35.223Z,97440.16
2022-11-06T22:21:05.287Z,97451.22
2022-11-06T22:23:31.643Z,97448.00
2022-11-06T22:25:57.968Z,97445.78
2022-11-06T22:28:24.326Z,97456.53
2022-11-06T22:30:50.903Z,97454.44
2022-11-06T22:33:18.526Z,97454.50
2022-11-06T22:35:44.855Z,97455.38
2022-11-06T22:38:11.862Z,97454.13
2022-11-06T22:40:38.191Z,97454.94
2022-11-06T22:43:04.560Z,97453.97
2022-11-06T22:45:31.262Z,97459.84
2022-11-06T22:47:57.640Z,97456.63
2022-11-06T22:50:23.959Z,97461.09
2022-11-06T22:52:51.470Z,97457.44
2022-11-06T22:55:17.808Z,97457.44
2022-11-06T22:57:44.151Z,97449.25
2022-11-06T23:00:10.771Z,97452.81
2022-11-06T23:02:37.410Z,97439.94
2022-11-06T23:05:03.783Z,97447.09
2022-11-06T23:07:30.111Z,97448.44
2022-11-06T23:09:56.449Z,97447.72
2022-11-06T23:12:22.810Z,97458.22
2022-11-06T23:14:49.147Z,97458.16
2022-11-06T23:17:15.466Z,97462.06
2022-11-06T23:19:41.870Z,97465.44
2022-11-06T23:22:26.861Z,97460.81
2022-11-06T23:24:53.425Z,97466.25
2022-11-06T23:27:20.623Z,97460.44
2022-11-06T23:29:46.965Z,97470.03
2022-11-06T23:32:13.320Z,97472.56
2022-11-06T23:34:39.652Z,97463.47
2022-11-06T23:37:06.016Z,97475.78
2022-11-06T23:39:32.341Z,97474.44
2022-11-06T23:41:58.665Z,97465.16
2022-11-06T23:44:43.814Z,97470.53
2022-11-06T23:47:10.221Z,97470.84
2022-11-06T23:49:36.544Z,97472.06
2022-11-06T23:52:03.051Z,97470.97
2022-11-06T23:54:29.399Z,97470.16
2022-11-06T23:56:55.718Z,97474.25
2022-11-06T23:59:22.138Z,97481.75
